Austin, Colorado
Current Conditions -  °F | °C
As of 3:35 AM on Sunday 21 Dec 2014 (Local Time) from KAJZ Reporting Station
Overcast Overcast  
Wind Chill: -2°   Ceiling: 7000
Heat Index:   Visibility: 10mi
Dew Point: -1°   Wind: 6mph
Humidity: 88%   Direction: 50°NE
Pressure: 30.09"   Gusts: NA
Location:  38.78°N, 107.95°W
Report Text: KAJZ 211035Z AUTO 05005KT 10SM BKN070 OVC100 01/M01 A3009 RMK AO2 T00071011
Loading
Personal Weather Stations






























Interactive Weather Map New forecast layout! Learn more

10-Day Weather Forecast

Advertisements
Track Severe Weather on mobile